sensor_id;sensor_type;location;lat;lon;timestamp;P1;durP1;ratioP1;P2;durP2;ratioP2
75465;SDS011;64049;46.290;44.240;2023-07-24T00:00:50;8.90;;;4.90;;
75465;SDS011;64049;46.290;44.240;2023-07-24T00:03:16;11.32;;;4.78;;
75465;SDS011;64049;46.290;44.240;2023-07-24T00:05:42;11.45;;;4.80;;
75465;SDS011;64049;46.290;44.240;2023-07-24T00:08:08;13.43;;;5.22;;
75465;SDS011;64049;46.290;44.240;2023-07-24T00:10:34;10.32;;;5.32;;
75465;SDS011;64049;46.290;44.240;2023-07-24T00:12:59;13.13;;;5.13;;
75465;SDS011;64049;46.290;44.240;2023-07-24T00:15:26;15.23;;;5.45;;
75465;SDS011;64049;46.290;44.240;2023-07-24T00:17:52;12.98;;;6.18;;
75465;SDS011;64049;46.290;44.240;2023-07-24T00:20:18;10.68;;;4.68;;
75465;SDS011;64049;46.290;44.240;2023-07-24T00:22:44;11.45;;;4.95;;
75465;SDS011;64049;46.290;44.240;2023-07-24T00:25:09;11.30;;;4.90;;
75465;SDS011;64049;46.290;44.240;2023-07-24T00:27:35;11.07;;;5.63;;
75465;SDS011;64049;46.290;44.240;2023-07-24T00:30:01;9.52;;;5.25;;
75465;SDS011;64049;46.290;44.240;2023-07-24T00:32:27;11.18;;;5.20;;
75465;SDS011;64049;46.290;44.240;2023-07-24T00:34:54;12.13;;;5.40;;
75465;SDS011;64049;46.290;44.240;2023-07-24T00:37:20;11.18;;;5.90;;
75465;SDS011;64049;46.290;44.240;2023-07-24T00:39:46;10.30;;;5.10;;
75465;SDS011;64049;46.290;44.240;2023-07-24T00:42:12;8.43;;;4.10;;
75465;SDS011;64049;46.290;44.240;2023-07-24T00:44:37;9.52;;;5.35;;
75465;SDS011;64049;46.290;44.240;2023-07-24T00:47:04;7.55;;;3.85;;
75465;SDS011;64049;46.290;44.240;2023-07-24T00:49:30;9.15;;;4.32;;
75465;SDS011;64049;46.290;44.240;2023-07-24T00:51:56;9.63;;;4.93;;
75465;SDS011;64049;46.290;44.240;2023-07-24T00:54:24;11.80;;;5.80;;
75465;SDS011;64049;46.290;44.240;2023-07-24T00:56:56;9.85;;;5.40;;
75465;SDS011;64049;46.290;44.240;2023-07-24T00:59:22;10.52;;;5.55;;
75465;SDS011;64049;46.290;44.240;2023-07-24T01:01:48;13.57;;;4.90;;
75465;SDS011;64049;46.290;44.240;2023-07-24T01:04:15;9.95;;;4.72;;
75465;SDS011;64049;46.290;44.240;2023-07-24T01:06:41;10.93;;;4.30;;
75465;SDS011;64049;46.290;44.240;2023-07-24T01:09:07;8.45;;;5.10;;
75465;SDS011;64049;46.290;44.240;2023-07-24T01:11:34;13.00;;;5.68;;
75465;SDS011;64049;46.290;44.240;2023-07-24T01:16:43;14.85;;;4.90;;
75465;SDS011;64049;46.290;44.240;2023-07-24T01:19:12;12.02;;;5.75;;
75465;SDS011;64049;46.290;44.240;2023-07-24T01:21:58;9.93;;;4.82;;
75465;SDS011;64049;46.290;44.240;2023-07-24T01:24:36;13.18;;;5.20;;
75465;SDS011;64049;46.290;44.240;2023-07-24T01:27:09;9.23;;;5.10;;
75465;SDS011;64049;46.290;44.240;2023-07-24T01:29:34;10.88;;;5.50;;
75465;SDS011;64049;46.290;44.240;2023-07-24T01:32:00;10.27;;;5.00;;
75465;SDS011;64049;46.290;44.240;2023-07-24T01:34:26;14.38;;;5.78;;
75465;SDS011;64049;46.290;44.240;2023-07-24T01:36:52;10.35;;;5.43;;
75465;SDS011;64049;46.290;44.240;2023-07-24T01:39:18;9.80;;;5.55;;
75465;SDS011;64049;46.290;44.240;2023-07-24T01:41:45;10.32;;;5.60;;
75465;SDS011;64049;46.290;44.240;2023-07-24T01:44:12;10.90;;;4.90;;
75465;SDS011;64049;46.290;44.240;2023-07-24T01:46:38;13.25;;;5.57;;
75465;SDS011;64049;46.290;44.240;2023-07-24T01:49:04;12.68;;;6.32;;
75465;SDS011;64049;46.290;44.240;2023-07-24T01:51:30;13.82;;;6.20;;
75465;SDS011;64049;46.290;44.240;2023-07-24T01:53:56;14.48;;;6.97;;
75465;SDS011;64049;46.290;44.240;2023-07-24T01:56:22;13.07;;;5.97;;
75465;SDS011;64049;46.290;44.240;2023-07-24T01:58:48;14.07;;;5.95;;
75465;SDS011;64049;46.290;44.240;2023-07-24T02:01:14;12.68;;;6.00;;
75465;SDS011;64049;46.290;44.240;2023-07-24T02:03:40;10.75;;;6.35;;
75465;SDS011;64049;46.290;44.240;2023-07-24T02:06:05;15.93;;;7.28;;
75465;SDS011;64049;46.290;44.240;2023-07-24T02:08:31;11.20;;;5.55;;
75465;SDS011;64049;46.290;44.240;2023-07-24T02:10:57;13.40;;;5.25;;
75465;SDS011;64049;46.290;44.240;2023-07-24T02:13:24;10.38;;;5.75;;
75465;SDS011;64049;46.290;44.240;2023-07-24T02:15:50;10.40;;;6.00;;
75465;SDS011;64049;46.290;44.240;2023-07-24T02:18:17;16.52;;;8.45;;
75465;SDS011;64049;46.290;44.240;2023-07-24T02:20:48;13.10;;;6.05;;
75465;SDS011;64049;46.290;44.240;2023-07-24T02:23:14;10.88;;;6.28;;
75465;SDS011;64049;46.290;44.240;2023-07-24T02:25:42;11.63;;;6.28;;
75465;SDS011;64049;46.290;44.240;2023-07-24T02:28:08;12.43;;;5.78;;
75465;SDS011;64049;46.290;44.240;2023-07-24T02:30:37;11.65;;;6.63;;
75465;SDS011;64049;46.290;44.240;2023-07-24T02:33:04;10.88;;;5.60;;
75465;SDS011;64049;46.290;44.240;2023-07-24T02:35:30;9.65;;;6.43;;
75465;SDS011;64049;46.290;44.240;2023-07-24T02:37:55;14.32;;;6.65;;
75465;SDS011;64049;46.290;44.240;2023-07-24T02:40:21;13.05;;;7.45;;
75465;SDS011;64049;46.290;44.240;2023-07-24T02:42:47;16.88;;;6.90;;
75465;SDS011;64049;46.290;44.240;2023-07-24T02:45:14;16.02;;;6.65;;
75465;SDS011;64049;46.290;44.240;2023-07-24T02:47:40;10.85;;;5.75;;
75465;SDS011;64049;46.290;44.240;2023-07-24T02:50:07;10.80;;;7.07;;
75465;SDS011;64049;46.290;44.240;2023-07-24T02:52:33;11.93;;;6.72;;
75465;SDS011;64049;46.290;44.240;2023-07-24T02:54:59;13.68;;;7.43;;
75465;SDS011;64049;46.290;44.240;2023-07-24T02:57:25;13.15;;;7.85;;
75465;SDS011;64049;46.290;44.240;2023-07-24T02:59:51;15.68;;;7.50;;
75465;SDS011;64049;46.290;44.240;2023-07-24T03:02:17;12.80;;;7.78;;
75465;SDS011;64049;46.290;44.240;2023-07-24T03:04:43;9.55;;;6.03;;
75465;SDS011;64049;46.290;44.240;2023-07-24T03:07:09;15.18;;;7.50;;
75465;SDS011;64049;46.290;44.240;2023-07-24T03:09:35;17.33;;;8.38;;
75465;SDS011;64049;46.290;44.240;2023-07-24T03:12:01;14.80;;;8.43;;
75465;SDS011;64049;46.290;44.240;2023-07-24T03:14:26;12.27;;;7.78;;
75465;SDS011;64049;46.290;44.240;2023-07-24T03:16:52;15.52;;;8.95;;
75465;SDS011;64049;46.290;44.240;2023-07-24T03:19:18;20.30;;;9.43;;
75465;SDS011;64049;46.290;44.240;2023-07-24T03:21:45;15.85;;;9.57;;
75465;SDS011;64049;46.290;44.240;2023-07-24T03:24:11;14.40;;;9.32;;
75465;SDS011;64049;46.290;44.240;2023-07-24T03:26:37;18.60;;;8.18;;
75465;SDS011;64049;46.290;44.240;2023-07-24T03:29:04;15.05;;;8.98;;
75465;SDS011;64049;46.290;44.240;2023-07-24T03:31:30;12.90;;;7.93;;
75465;SDS011;64049;46.290;44.240;2023-07-24T03:33:56;18.48;;;8.95;;
75465;SDS011;64049;46.290;44.240;2023-07-24T03:36:22;13.70;;;7.72;;
75465;SDS011;64049;46.290;44.240;2023-07-24T03:38:47;18.90;;;9.13;;
75465;SDS011;64049;46.290;44.240;2023-07-24T03:41:13;14.45;;;7.75;;
75465;SDS011;64049;46.290;44.240;2023-07-24T03:43:39;13.05;;;8.55;;
75465;SDS011;64049;46.290;44.240;2023-07-24T03:46:05;14.75;;;8.07;;
75465;SDS011;64049;46.290;44.240;2023-07-24T03:48:31;18.88;;;8.23;;
75465;SDS011;64049;46.290;44.240;2023-07-24T03:51:00;12.25;;;7.03;;
75465;SDS011;64049;46.290;44.240;2023-07-24T03:53:26;16.77;;;8.07;;
75465;SDS011;64049;46.290;44.240;2023-07-24T03:55:52;13.98;;;8.25;;
75465;SDS011;64049;46.290;44.240;2023-07-24T03:58:19;17.13;;;9.68;;
75465;SDS011;64049;46.290;44.240;2023-07-24T04:00:45;15.50;;;8.73;;
75465;SDS011;64049;46.290;44.240;2023-07-24T04:03:11;15.98;;;9.07;;
75465;SDS011;64049;46.290;44.240;2023-07-24T04:05:37;15.38;;;8.57;;
75465;SDS011;64049;46.290;44.240;2023-07-24T04:08:03;20.90;;;9.45;;
75465;SDS011;64049;46.290;44.240;2023-07-24T04:10:29;17.65;;;9.05;;
75465;SDS011;64049;46.290;44.240;2023-07-24T04:12:56;17.30;;;9.10;;
75465;SDS011;64049;46.290;44.240;2023-07-24T04:15:22;14.18;;;8.98;;
75465;SDS011;64049;46.290;44.240;2023-07-24T04:17:48;11.90;;;7.95;;
75465;SDS011;64049;46.290;44.240;2023-07-24T04:20:14;14.63;;;7.15;;
75465;SDS011;64049;46.290;44.240;2023-07-24T04:22:40;14.60;;;8.25;;
75465;SDS011;64049;46.290;44.240;2023-07-24T04:25:07;14.60;;;8.32;;
75465;SDS011;64049;46.290;44.240;2023-07-24T04:27:33;18.52;;;7.93;;
75465;SDS011;64049;46.290;44.240;2023-07-24T04:29:59;15.95;;;8.80;;
75465;SDS011;64049;46.290;44.240;2023-07-24T04:32:28;13.25;;;7.45;;
75465;SDS011;64049;46.290;44.240;2023-07-24T04:34:54;14.38;;;7.97;;
75465;SDS011;64049;46.290;44.240;2023-07-24T04:37:20;14.00;;;8.32;;
75465;SDS011;64049;46.290;44.240;2023-07-24T04:39:45;15.95;;;7.20;;
75465;SDS011;64049;46.290;44.240;2023-07-24T04:42:11;14.93;;;7.53;;
75465;SDS011;64049;46.290;44.240;2023-07-24T04:44:37;15.38;;;8.68;;
75465;SDS011;64049;46.290;44.240;2023-07-24T04:47:03;14.07;;;7.68;;
75465;SDS011;64049;46.290;44.240;2023-07-24T04:49:29;12.85;;;7.05;;
75465;SDS011;64049;46.290;44.240;2023-07-24T04:51:56;20.00;;;8.57;;
75465;SDS011;64049;46.290;44.240;2023-07-24T04:54:22;16.50;;;8.50;;
75465;SDS011;64049;46.290;44.240;2023-07-24T04:56:47;15.30;;;8.82;;
75465;SDS011;64049;46.290;44.240;2023-07-24T04:59:13;14.50;;;8.77;;
75465;SDS011;64049;46.290;44.240;2023-07-24T05:01:39;13.77;;;7.43;;
75465;SDS011;64049;46.290;44.240;2023-07-24T05:04:05;14.45;;;8.48;;
75465;SDS011;64049;46.290;44.240;2023-07-24T05:06:31;15.23;;;9.63;;
75465;SDS011;64049;46.290;44.240;2023-07-24T05:08:57;15.75;;;8.43;;
75465;SDS011;64049;46.290;44.240;2023-07-24T05:11:22;15.15;;;8.02;;
75465;SDS011;64049;46.290;44.240;2023-07-24T05:13:48;17.00;;;8.60;;
75465;SDS011;64049;46.290;44.240;2023-07-24T05:16:14;14.50;;;8.00;;
75465;SDS011;64049;46.290;44.240;2023-07-24T05:18:40;16.45;;;7.82;;
75465;SDS011;64049;46.290;44.240;2023-07-24T05:21:06;16.92;;;8.18;;
75465;SDS011;64049;46.290;44.240;2023-07-24T05:23:32;16.10;;;9.40;;
75465;SDS011;64049;46.290;44.240;2023-07-24T05:25:58;15.38;;;7.20;;
75465;SDS011;64049;46.290;44.240;2023-07-24T05:28:26;14.80;;;8.55;;
75465;SDS011;64049;46.290;44.240;2023-07-24T05:30:55;17.95;;;7.28;;
75465;SDS011;64049;46.290;44.240;2023-07-24T05:33:25;14.32;;;7.68;;
75465;SDS011;64049;46.290;44.240;2023-07-24T05:35:51;11.38;;;7.05;;
75465;SDS011;64049;46.290;44.240;2023-07-24T05:38:16;15.82;;;7.55;;
75465;SDS011;64049;46.290;44.240;2023-07-24T05:40:42;12.30;;;7.35;;
75465;SDS011;64049;46.290;44.240;2023-07-24T05:43:08;17.05;;;7.28;;
75465;SDS011;64049;46.290;44.240;2023-07-24T05:45:35;15.63;;;7.15;;
75465;SDS011;64049;46.290;44.240;2023-07-24T05:48:01;19.63;;;8.02;;
75465;SDS011;64049;46.290;44.240;2023-07-24T05:50:27;12.00;;;7.75;;
75465;SDS011;64049;46.290;44.240;2023-07-24T05:52:52;14.00;;;7.13;;
75465;SDS011;64049;46.290;44.240;2023-07-24T05:55:18;25.75;;;9.48;;
75465;SDS011;64049;46.290;44.240;2023-07-24T05:57:44;32.33;;;17.92;;
75465;SDS011;64049;46.290;44.240;2023-07-24T06:00:10;33.53;;;19.90;;
75465;SDS011;64049;46.290;44.240;2023-07-24T06:02:42;21.98;;;10.95;;
75465;SDS011;64049;46.290;44.240;2023-07-24T06:05:08;28.20;;;18.35;;
75465;SDS011;64049;46.290;44.240;2023-07-24T06:07:34;26.80;;;12.50;;
75465;SDS011;64049;46.290;44.240;2023-07-24T06:10:00;26.10;;;19.15;;
75465;SDS011;64049;46.290;44.240;2023-07-24T06:12:26;32.17;;;16.60;;
75465;SDS011;64049;46.290;44.240;2023-07-24T06:14:53;26.08;;;12.90;;
75465;SDS011;64049;46.290;44.240;2023-07-24T06:17:18;23.13;;;11.35;;
75465;SDS011;64049;46.290;44.240;2023-07-24T06:19:44;40.35;;;14.40;;
75465;SDS011;64049;46.290;44.240;2023-07-24T06:22:10;33.35;;;11.80;;
75465;SDS011;64049;46.290;44.240;2023-07-24T06:24:36;42.38;;;23.30;;
75465;SDS011;64049;46.290;44.240;2023-07-24T06:27:03;15.98;;;8.95;;
75465;SDS011;64049;46.290;44.240;2023-07-24T06:29:31;15.05;;;8.20;;
75465;SDS011;64049;46.290;44.240;2023-07-24T06:31:57;12.75;;;6.50;;
75465;SDS011;64049;46.290;44.240;2023-07-24T06:34:23;19.40;;;8.90;;
75465;SDS011;64049;46.290;44.240;2023-07-24T06:36:49;15.50;;;7.45;;
75465;SDS011;64049;46.290;44.240;2023-07-24T06:39:15;11.27;;;6.90;;
75465;SDS011;64049;46.290;44.240;2023-07-24T06:41:41;12.18;;;7.55;;
75465;SDS011;64049;46.290;44.240;2023-07-24T06:44:07;12.32;;;7.05;;
75465;SDS011;64049;46.290;44.240;2023-07-24T06:46:33;13.40;;;6.78;;
75465;SDS011;64049;46.290;44.240;2023-07-24T06:48:59;11.43;;;7.05;;
75465;SDS011;64049;46.290;44.240;2023-07-24T06:51:25;18.15;;;7.50;;
75465;SDS011;64049;46.290;44.240;2023-07-24T06:53:51;19.27;;;8.90;;
75465;SDS011;64049;46.290;44.240;2023-07-24T06:56:16;13.35;;;6.53;;
75465;SDS011;64049;46.290;44.240;2023-07-24T06:58:42;12.18;;;6.88;;
75465;SDS011;64049;46.290;44.240;2023-07-24T07:01:08;10.90;;;6.28;;
75465;SDS011;64049;46.290;44.240;2023-07-24T07:03:34;17.00;;;7.20;;
75465;SDS011;64049;46.290;44.240;2023-07-24T07:06:00;19.25;;;7.60;;
75465;SDS011;64049;46.290;44.240;2023-07-24T07:08:27;17.23;;;7.03;;
75465;SDS011;64049;46.290;44.240;2023-07-24T07:10:59;13.52;;;6.05;;
75465;SDS011;64049;46.290;44.240;2023-07-24T07:15:52;13.98;;;6.88;;
75465;SDS011;64049;46.290;44.240;2023-07-24T07:18:18;14.05;;;6.82;;
75465;SDS011;64049;46.290;44.240;2023-07-24T07:20:47;14.38;;;6.55;;
75465;SDS011;64049;46.290;44.240;2023-07-24T07:23:14;19.90;;;7.07;;
75465;SDS011;64049;46.290;44.240;2023-07-24T07:28:39;13.23;;;6.78;;
75465;SDS011;64049;46.290;44.240;2023-07-24T07:31:05;14.35;;;6.55;;
75465;SDS011;64049;46.290;44.240;2023-07-24T07:33:30;9.70;;;5.03;;
75465;SDS011;64049;46.290;44.240;2023-07-24T07:35:58;11.25;;;5.55;;
75465;SDS011;64049;46.290;44.240;2023-07-24T07:38:24;10.85;;;5.10;;
75465;SDS011;64049;46.290;44.240;2023-07-24T07:40:50;19.27;;;6.43;;
75465;SDS011;64049;46.290;44.240;2023-07-24T07:43:16;16.58;;;6.80;;
75465;SDS011;64049;46.290;44.240;2023-07-24T07:49:42;11.30;;;5.70;;
75465;SDS011;64049;46.290;44.240;2023-07-24T07:52:08;11.73;;;4.80;;
75465;SDS011;64049;46.290;44.240;2023-07-24T07:57:25;8.85;;;4.45;;
75465;SDS011;64049;46.290;44.240;2023-07-24T07:59:51;10.18;;;4.22;;
75465;SDS011;64049;46.290;44.240;2023-07-24T08:02:17;10.15;;;4.50;;
75465;SDS011;64049;46.290;44.240;2023-07-24T08:07:28;10.95;;;4.38;;
75465;SDS011;64049;46.290;44.240;2023-07-24T08:09:56;9.45;;;4.32;;
75465;SDS011;64049;46.290;44.240;2023-07-24T08:12:22;8.05;;;3.97;;
75465;SDS011;64049;46.290;44.240;2023-07-24T08:14:49;9.95;;;4.43;;
75465;SDS011;64049;46.290;44.240;2023-07-24T08:22:06;8.40;;;3.83;;
75465;SDS011;64049;46.290;44.240;2023-07-24T08:24:40;11.07;;;3.72;;
75465;SDS011;64049;46.290;44.240;2023-07-24T08:27:06;9.82;;;3.83;;
75465;SDS011;64049;46.290;44.240;2023-07-24T08:29:32;8.50;;;3.50;;
75465;SDS011;64049;46.290;44.240;2023-07-24T08:31:58;7.88;;;3.20;;
75465;SDS011;64049;46.290;44.240;2023-07-24T08:37:03;6.80;;;3.47;;
75465;SDS011;64049;46.290;44.240;2023-07-24T08:39:30;9.05;;;3.38;;
75465;SDS011;64049;46.290;44.240;2023-07-24T08:41:56;11.52;;;3.38;;
75465;SDS011;64049;46.290;44.240;2023-07-24T08:44:22;9.07;;;4.50;;
75465;SDS011;64049;46.290;44.240;2023-07-24T08:46:50;7.65;;;3.50;;
75465;SDS011;64049;46.290;44.240;2023-07-24T08:49:17;8.05;;;3.53;;
75465;SDS011;64049;46.290;44.240;2023-07-24T08:54:13;9.80;;;3.38;;
75465;SDS011;64049;46.290;44.240;2023-07-24T08:56:40;12.80;;;3.15;;
75465;SDS011;64049;46.290;44.240;2023-07-24T09:01:32;8.23;;;2.97;;
75465;SDS011;64049;46.290;44.240;2023-07-24T09:04:05;8.15;;;3.22;;
75465;SDS011;64049;46.290;44.240;2023-07-24T09:06:34;7.47;;;3.08;;
75465;SDS011;64049;46.290;44.240;2023-07-24T09:09:00;7.35;;;3.20;;
75465;SDS011;64049;46.290;44.240;2023-07-24T09:11:26;8.20;;;3.10;;
75465;SDS011;64049;46.290;44.240;2023-07-24T09:13:52;8.02;;;3.40;;
75465;SDS011;64049;46.290;44.240;2023-07-24T09:20:05;9.43;;;3.50;;
75465;SDS011;64049;46.290;44.240;2023-07-24T09:22:31;7.82;;;3.40;;
75465;SDS011;64049;46.290;44.240;2023-07-24T09:25:04;8.43;;;3.38;;
75465;SDS011;64049;46.290;44.240;2023-07-24T09:27:30;5.95;;;2.88;;
75465;SDS011;64049;46.290;44.240;2023-07-24T09:29:56;8.00;;;3.70;;
75465;SDS011;64049;46.290;44.240;2023-07-24T09:32:23;11.05;;;3.60;;
75465;SDS011;64049;46.290;44.240;2023-07-24T09:38:09;9.02;;;3.42;;
75465;SDS011;64049;46.290;44.240;2023-07-24T09:40:40;8.50;;;3.30;;
75465;SDS011;64049;46.290;44.240;2023-07-24T09:43:20;7.55;;;3.20;;
75465;SDS011;64049;46.290;44.240;2023-07-24T09:46:06;8.10;;;3.42;;
75465;SDS011;64049;46.290;44.240;2023-07-24T09:48:32;7.05;;;3.20;;
75465;SDS011;64049;46.290;44.240;2023-07-24T09:50:59;6.93;;;3.88;;
75465;SDS011;64049;46.290;44.240;2023-07-24T09:56:01;14.65;;;4.15;;
75465;SDS011;64049;46.290;44.240;2023-07-24T09:58:31;11.77;;;3.75;;
75465;SDS011;64049;46.290;44.240;2023-07-24T10:01:00;9.63;;;3.97;;
75465;SDS011;64049;46.290;44.240;2023-07-24T10:03:28;10.60;;;4.25;;
75465;SDS011;64049;46.290;44.240;2023-07-24T10:05:57;7.57;;;3.72;;
75465;SDS011;64049;46.290;44.240;2023-07-24T10:08:23;11.57;;;4.05;;
75465;SDS011;64049;46.290;44.240;2023-07-24T10:10:51;8.90;;;3.92;;
75465;SDS011;64049;46.290;44.240;2023-07-24T10:13:20;9.18;;;3.78;;
75465;SDS011;64049;46.290;44.240;2023-07-24T10:15:48;8.75;;;3.90;;
75465;SDS011;64049;46.290;44.240;2023-07-24T10:18:15;11.50;;;4.47;;
75465;SDS011;64049;46.290;44.240;2023-07-24T10:20:46;11.38;;;4.10;;
75465;SDS011;64049;46.290;44.240;2023-07-24T10:23:16;10.80;;;4.68;;
75465;SDS011;64049;46.290;44.240;2023-07-24T10:25:46;11.88;;;4.60;;
75465;SDS011;64049;46.290;44.240;2023-07-24T10:28:17;7.15;;;3.78;;
75465;SDS011;64049;46.290;44.240;2023-07-24T10:30:44;11.52;;;4.18;;
75465;SDS011;64049;46.290;44.240;2023-07-24T10:33:20;10.60;;;4.50;;
75465;SDS011;64049;46.290;44.240;2023-07-24T10:35:47;13.23;;;4.78;;
75465;SDS011;64049;46.290;44.240;2023-07-24T10:38:16;13.60;;;5.72;;
75465;SDS011;64049;46.290;44.240;2023-07-24T10:40:44;13.40;;;6.20;;
75465;SDS011;64049;46.290;44.240;2023-07-24T10:43:11;17.90;;;6.35;;
75465;SDS011;64049;46.290;44.240;2023-07-24T10:45:46;14.13;;;5.70;;
75465;SDS011;64049;46.290;44.240;2023-07-24T10:48:14;13.55;;;6.70;;
75465;SDS011;64049;46.290;44.240;2023-07-24T10:50:42;14.65;;;7.10;;
75465;SDS011;64049;46.290;44.240;2023-07-24T10:53:10;15.00;;;7.78;;
75465;SDS011;64049;46.290;44.240;2023-07-24T10:58:12;10.93;;;6.32;;
75465;SDS011;64049;46.290;44.240;2023-07-24T11:03:13;15.63;;;7.47;;
75465;SDS011;64049;46.290;44.240;2023-07-24T11:05:43;13.38;;;6.10;;
75465;SDS011;64049;46.290;44.240;2023-07-24T11:08:11;13.98;;;6.55;;
75465;SDS011;64049;46.290;44.240;2023-07-24T11:10:45;8.10;;;4.35;;
75465;SDS011;64049;46.290;44.240;2023-07-24T11:13:13;6.40;;;2.30;;
75465;SDS011;64049;46.290;44.240;2023-07-24T11:15:41;7.13;;;3.90;;
75465;SDS011;64049;46.290;44.240;2023-07-24T11:18:07;8.88;;;4.25;;
75465;SDS011;64049;46.290;44.240;2023-07-24T11:20:37;9.73;;;4.22;;
75465;SDS011;64049;46.290;44.240;2023-07-24T11:23:04;10.13;;;5.10;;
75465;SDS011;64049;46.290;44.240;2023-07-24T11:25:30;8.68;;;3.90;;
75465;SDS011;64049;46.290;44.240;2023-07-24T11:27:57;10.77;;;2.95;;
75465;SDS011;64049;46.290;44.240;2023-07-24T11:30:23;10.73;;;3.90;;
75465;SDS011;64049;46.290;44.240;2023-07-24T11:32:49;8.90;;;4.13;;
75465;SDS011;64049;46.290;44.240;2023-07-24T11:35:16;5.72;;;2.85;;
75465;SDS011;64049;46.290;44.240;2023-07-24T11:37:48;9.65;;;5.78;;
75465;SDS011;64049;46.290;44.240;2023-07-24T11:40:15;8.57;;;5.07;;
75465;SDS011;64049;46.290;44.240;2023-07-24T11:42:44;10.32;;;5.72;;
75465;SDS011;64049;46.290;44.240;2023-07-24T11:45:10;10.32;;;5.68;;
75465;SDS011;64049;46.290;44.240;2023-07-24T11:47:49;8.05;;;3.83;;
75465;SDS011;64049;46.290;44.240;2023-07-24T11:50:19;9.70;;;5.07;;
75465;SDS011;64049;46.290;44.240;2023-07-24T11:52:47;8.70;;;4.97;;
75465;SDS011;64049;46.290;44.240;2023-07-24T11:55:15;8.70;;;5.05;;
75465;SDS011;64049;46.290;44.240;2023-07-24T11:57:42;7.07;;;3.63;;
75465;SDS011;64049;46.290;44.240;2023-07-24T12:00:18;6.00;;;3.30;;
75465;SDS011;64049;46.290;44.240;2023-07-24T12:02:45;6.53;;;3.30;;
75465;SDS011;64049;46.290;44.240;2023-07-24T12:05:14;19.80;;;6.70;;
75465;SDS011;64049;46.290;44.240;2023-07-24T12:07:42;10.15;;;4.90;;
75465;SDS011;64049;46.290;44.240;2023-07-24T12:10:09;9.82;;;5.20;;
75465;SDS011;64049;46.290;44.240;2023-07-24T12:12:45;13.90;;;6.85;;
75465;SDS011;64049;46.290;44.240;2023-07-24T12:15:14;11.40;;;5.63;;
75465;SDS011;64049;46.290;44.240;2023-07-24T12:17:40;8.52;;;5.05;;
75465;SDS011;64049;46.290;44.240;2023-07-24T12:20:07;7.55;;;4.40;;
75465;SDS011;64049;46.290;44.240;2023-07-24T12:22:38;6.65;;;2.83;;
75465;SDS011;64049;46.290;44.240;2023-07-24T12:25:06;7.50;;;2.60;;
75465;SDS011;64049;46.290;44.240;2023-07-24T12:27:32;6.30;;;2.42;;
75465;SDS011;64049;46.290;44.240;2023-07-24T12:29:59;7.95;;;2.58;;
75465;SDS011;64049;46.290;44.240;2023-07-24T12:32:25;7.35;;;3.00;;
75465;SDS011;64049;46.290;44.240;2023-07-24T12:34:53;5.15;;;2.15;;
75465;SDS011;64049;46.290;44.240;2023-07-24T12:37:19;7.13;;;2.17;;
75465;SDS011;64049;46.290;44.240;2023-07-24T12:39:46;6.90;;;2.78;;
75465;SDS011;64049;46.290;44.240;2023-07-24T12:42:12;6.85;;;2.63;;
75465;SDS011;64049;46.290;44.240;2023-07-24T12:44:39;6.05;;;2.42;;
75465;SDS011;64049;46.290;44.240;2023-07-24T12:47:06;4.63;;;2.22;;
75465;SDS011;64049;46.290;44.240;2023-07-24T12:49:32;6.18;;;2.40;;
75465;SDS011;64049;46.290;44.240;2023-07-24T12:51:58;4.60;;;1.98;;
75465;SDS011;64049;46.290;44.240;2023-07-24T12:54:24;5.78;;;2.42;;
75465;SDS011;64049;46.290;44.240;2023-07-24T12:56:50;6.47;;;2.08;;
75465;SDS011;64049;46.290;44.240;2023-07-24T12:59:19;5.70;;;3.10;;
75465;SDS011;64049;46.290;44.240;2023-07-24T13:01:46;8.18;;;3.38;;
75465;SDS011;64049;46.290;44.240;2023-07-24T13:04:12;5.63;;;2.92;;
75465;SDS011;64049;46.290;44.240;2023-07-24T13:06:38;5.90;;;2.85;;
75465;SDS011;64049;46.290;44.240;2023-07-24T13:09:04;5.65;;;2.70;;
75465;SDS011;64049;46.290;44.240;2023-07-24T13:11:32;6.20;;;3.08;;
75465;SDS011;64049;46.290;44.240;2023-07-24T13:13:58;6.50;;;3.20;;
75465;SDS011;64049;46.290;44.240;2023-07-24T13:16:24;6.15;;;2.92;;
75465;SDS011;64049;46.290;44.240;2023-07-24T13:18:50;8.82;;;3.60;;
75465;SDS011;64049;46.290;44.240;2023-07-24T13:21:16;11.32;;;3.20;;
75465;SDS011;64049;46.290;44.240;2023-07-24T13:23:42;9.35;;;3.88;;
75465;SDS011;64049;46.290;44.240;2023-07-24T13:26:08;8.00;;;3.28;;
75465;SDS011;64049;46.290;44.240;2023-07-24T13:28:38;10.32;;;3.17;;
75465;SDS011;64049;46.290;44.240;2023-07-24T13:31:18;6.95;;;2.90;;
75465;SDS011;64049;46.290;44.240;2023-07-24T13:33:45;11.02;;;3.42;;
75465;SDS011;64049;46.290;44.240;2023-07-24T13:36:13;6.13;;;3.47;;
75465;SDS011;64049;46.290;44.240;2023-07-24T13:38:39;7.75;;;3.13;;
75465;SDS011;64049;46.290;44.240;2023-07-24T13:43:33;7.00;;;3.75;;
75465;SDS011;64049;46.290;44.240;2023-07-24T13:45:59;7.57;;;3.80;;
75465;SDS011;64049;46.290;44.240;2023-07-24T13:48:27;8.70;;;3.58;;
75465;SDS011;64049;46.290;44.240;2023-07-24T13:50:54;9.90;;;3.75;;
75465;SDS011;64049;46.290;44.240;2023-07-24T13:53:20;8.88;;;3.15;;
75465;SDS011;64049;46.290;44.240;2023-07-24T13:55:48;7.32;;;3.47;;
75465;SDS011;64049;46.290;44.240;2023-07-24T13:58:14;12.30;;;4.07;;
75465;SDS011;64049;46.290;44.240;2023-07-24T14:00:40;14.20;;;4.18;;
75465;SDS011;64049;46.290;44.240;2023-07-24T14:03:06;7.15;;;4.00;;
75465;SDS011;64049;46.290;44.240;2023-07-24T14:05:32;8.23;;;3.45;;
75465;SDS011;64049;46.290;44.240;2023-07-24T14:08:02;7.07;;;3.40;;
75465;SDS011;64049;46.290;44.240;2023-07-24T14:10:28;9.43;;;3.40;;
75465;SDS011;64049;46.290;44.240;2023-07-24T14:12:53;8.05;;;3.83;;
75465;SDS011;64049;46.290;44.240;2023-07-24T14:15:19;8.48;;;3.58;;
75465;SDS011;64049;46.290;44.240;2023-07-24T14:17:46;14.15;;;4.10;;
75465;SDS011;64049;46.290;44.240;2023-07-24T14:20:12;22.08;;;4.50;;
75465;SDS011;64049;46.290;44.240;2023-07-24T14:22:38;10.43;;;3.67;;
75465;SDS011;64049;46.290;44.240;2023-07-24T14:25:05;9.25;;;3.00;;
75465;SDS011;64049;46.290;44.240;2023-07-24T14:27:32;18.23;;;5.55;;
75465;SDS011;64049;46.290;44.240;2023-07-24T14:29:58;6.68;;;3.60;;
75465;SDS011;64049;46.290;44.240;2023-07-24T14:32:23;13.80;;;4.10;;
75465;SDS011;64049;46.290;44.240;2023-07-24T14:34:51;7.78;;;3.70;;
75465;SDS011;64049;46.290;44.240;2023-07-24T14:37:17;8.27;;;3.85;;
75465;SDS011;64049;46.290;44.240;2023-07-24T14:39:43;8.32;;;3.38;;
75465;SDS011;64049;46.290;44.240;2023-07-24T14:42:10;17.48;;;3.92;;
75465;SDS011;64049;46.290;44.240;2023-07-24T14:44:36;14.75;;;4.07;;
75465;SDS011;64049;46.290;44.240;2023-07-24T14:47:02;16.98;;;5.75;;
75465;SDS011;64049;46.290;44.240;2023-07-24T14:49:28;10.45;;;3.78;;
75465;SDS011;64049;46.290;44.240;2023-07-24T14:51:54;8.80;;;3.42;;
75465;SDS011;64049;46.290;44.240;2023-07-24T14:54:26;7.32;;;3.78;;
75465;SDS011;64049;46.290;44.240;2023-07-24T14:56:52;7.72;;;3.10;;
75465;SDS011;64049;46.290;44.240;2023-07-24T14:59:17;7.47;;;3.63;;
75465;SDS011;64049;46.290;44.240;2023-07-24T15:01:43;8.52;;;3.70;;
75465;SDS011;64049;46.290;44.240;2023-07-24T15:06:40;8.80;;;3.80;;
75465;SDS011;64049;46.290;44.240;2023-07-24T15:09:06;8.57;;;3.90;;
75465;SDS011;64049;46.290;44.240;2023-07-24T15:11:32;10.40;;;4.22;;
75465;SDS011;64049;46.290;44.240;2023-07-24T15:13:58;8.60;;;4.40;;